Eldridge, Alabama
Current Conditions -  °F | °C
As of 5:55 PM on Saturday 22 Nov 2014 (Local Time) from KJFX Reporting Station
Overcast Overcast  
Wind Chill: 63°   Ceiling: 3800
Heat Index: 63°   Visibility: 10mi
Dew Point: 52°   Wind: 5mph
Humidity: 68%   Direction: 110°ESE
Pressure: 30.13"   Gusts: NA
Location:  33.92°N, 87.62°W
Report Text: KJFX 222355Z AUTO 11004KT 10SM OVC038 17/11 A3013 RMK A02 P-128
Loading
Personal Weather Stations






























Interactive Weather Map New forecast layout! Learn more

10-Day Weather Forecast

Advertisements
Track Severe Weather on mobile